Terminal Aerodrome Forecast
Issued by NWS Knoxville/Tri Cities, TN

Home | Current Version | Previous Version | Text Only | Print | Product List | Glossary On
Versions: 1 2 3 4 5 6 7 8 9 10 11 12 13 14 15
000
FTUS44 KMRX 282320
TAFCHA
TAF
KCHA 282320Z 2900/2924 22009KT P6SM SCT025 BKN050
      TEMPO 2900/2904 6SM -RA BKN025
     FM290400 24004KT P6SM OVC015
     FM291400 24006KT P6SM BKN025
     FM291600 24008KT P6SM SCT050 BKN100=

USA.gov is the U.S. government's official web portal to all federal, state and local government web resources and services.